Time;durP1;ratioP1;P1;durP2;ratioP2;P2;SDS_P1;SDS_P2;PMS_P1;PMS_P2;Temp;Humidity;BMP_temperature;BMP_pressure;BME280_temperature;BME280_humidity;BME280_pressure;Samples;Min_cycle;Max_cycle;Signal;HPM_P1;HPM_P2
2023/07/30 00:02:00;;;;;;;5.25;2.83;;;18.10;99.90;;;;;;5038343;28;20187;-78
2023/07/30 00:04:27;;;;;;;5.43;3.50;;;18.00;99.90;;;;;;5020383;28;20215;-78
2023/07/30 00:06:55;;;;;;;4.03;3.10;;;18.10;99.90;;;;;;5037578;28;20203;-78
2023/07/30 00:09:22;;;;;;;3.60;3.25;;;18.10;99.90;;;;;;5040448;28;20218;-78
2023/07/30 00:11:51;;;;;;;3.03;2.70;;;18.10;99.90;;;;;;5032876;28;20262;-78
2023/07/30 00:14:28;;;;;;;5.03;3.33;;;18.10;99.90;;;;;;5034721;28;20512;-78
2023/07/30 00:16:56;;;;;;;4.88;3.25;;;18.10;99.90;;;;;;5044284;28;20199;-78
2023/07/30 00:19:23;;;;;;;7.15;3.60;;;18.10;99.90;;;;;;5044878;28;20223;-78
2023/07/30 00:21:51;;;;;;;5.43;3.35;;;18.00;99.90;;;;;;5017701;28;20215;-78
2023/07/30 00:24:18;;;;;;;4.88;3.78;;;18.00;99.90;;;;;;5032424;28;20207;-78
2023/07/30 00:26:46;;;;;;;6.65;3.30;;;17.80;99.90;;;;;;5019320;28;20209;-78
2023/07/30 00:29:14;;;;;;;7.55;3.22;;;17.80;99.90;;;;;;5032613;28;20226;-78
2023/07/30 00:31:42;;;;;;;7.80;3.67;;;17.80;99.90;;;;;;5015454;28;20198;-78
2023/07/30 00:34:09;;;;;;;6.55;3.45;;;17.80;99.90;;;;;;5046433;28;20202;-78
2023/07/30 00:36:37;;;;;;;4.20;3.17;;;17.80;99.90;;;;;;5034598;28;20187;-78
2023/07/30 00:39:04;;;;;;;6.70;3.55;;;17.70;99.90;;;;;;5033841;28;20214;-78
2023/07/30 00:41:32;;;;;;;4.80;3.30;;;17.80;99.90;;;;;;5028930;28;20206;-78
2023/07/30 00:44:00;;;;;;;6.30;3.50;;;17.80;99.90;;;;;;5049603;28;20558;-78
2023/07/30 00:46:29;;;;;;;6.05;3.38;;;17.80;99.90;;;;;;5029183;28;20191;-78
2023/07/30 00:48:58;;;;;;;5.05;3.22;;;17.70;99.90;;;;;;5029363;28;20605;-78
2023/07/30 00:51:28;;;;;;;4.22;3.13;;;17.80;99.90;;;;;;5047653;28;20199;-78
2023/07/30 00:53:56;;;;;;;4.05;3.00;;;17.80;99.90;;;;;;5015071;28;20645;-78
2023/07/30 00:56:24;;;;;;;4.88;3.50;;;17.60;99.90;;;;;;5015243;28;20200;-78
2023/07/30 00:58:53;;;;;;;4.85;3.17;;;17.50;99.90;;;;;;5009157;28;20226;-78
2023/07/30 01:01:20;;;;;;;4.40;3.15;;;17.50;99.90;;;;;;5042082;28;20211;-78
2023/07/30 01:03:50;;;;;;;6.22;3.08;;;17.50;99.90;;;;;;5043589;28;20218;-78
2023/07/30 01:06:19;;;;;;;6.50;3.83;;;17.40;99.90;;;;;;5032694;28;20195;-78
2023/07/30 01:08:47;;;;;;;4.55;3.28;;;17.40;99.90;;;;;;5031754;28;20227;-78
2023/07/30 01:11:16;;;;;;;6.68;3.58;;;17.30;99.90;;;;;;5033491;28;20194;-78
2023/07/30 01:13:44;;;;;;;5.28;3.40;;;17.40;99.90;;;;;;5031474;28;20195;-78
2023/07/30 01:16:12;;;;;;;6.53;3.15;;;17.30;99.90;;;;;;5012603;28;20198;-78
2023/07/30 01:18:39;;;;;;;5.55;3.28;;;17.20;99.90;;;;;;5044298;28;20226;-78
2023/07/30 01:21:08;;;;;;;5.85;3.00;;;17.10;99.90;;;;;;5014111;28;20210;-78
2023/07/30 01:23:35;;;;;;;3.80;3.10;;;17.20;99.90;;;;;;5004987;28;20194;-78
2023/07/30 01:26:09;;;;;;;5.75;3.55;;;17.10;99.90;;;;;;5017100;28;20199;-78
2023/07/30 01:28:40;;;;;;;5.32;3.20;;;17.20;99.90;;;;;;5012481;28;20227;-78
2023/07/30 01:31:08;;;;;;;5.05;4.00;;;17.20;99.90;;;;;;5026848;28;20202;-79
2023/07/30 01:33:37;;;;;;;7.07;3.33;;;17.00;99.90;;;;;;5014945;28;20210;-78
2023/07/30 01:36:06;;;;;;;3.50;3.08;;;17.20;99.90;;;;;;5042360;28;20199;-78
2023/07/30 01:38:36;;;;;;;7.57;3.75;;;17.20;99.90;;;;;;5032841;28;20215;-78
2023/07/30 01:41:04;;;;;;;4.97;3.30;;;17.00;99.90;;;;;;5015909;28;20198;-78
2023/07/30 01:43:31;;;;;;;4.70;2.90;;;17.10;99.90;;;;;;5015652;28;20190;-78
2023/07/30 01:45:58;;;;;;;7.80;3.75;;;17.00;99.90;;;;;;5031065;28;20219;-78
2023/07/30 01:48:27;;;;;;;7.25;3.42;;;16.80;99.90;;;;;;5013973;28;20238;-78
2023/07/30 01:50:55;;;;;;;5.15;3.63;;;16.90;99.90;;;;;;5031383;28;20676;-78
2023/07/30 01:53:22;;;;;;;7.40;3.53;;;17.00;99.90;;;;;;5046952;28;20218;-79
2023/07/30 01:55:51;;;;;;;5.63;3.08;;;16.90;99.90;;;;;;5013832;28;20202;-78
2023/07/30 01:58:18;;;;;;;4.75;2.92;;;16.90;99.90;;;;;;5042218;28;20230;-78
2023/07/30 02:00:46;;;;;;;7.03;3.42;;;17.00;99.90;;;;;;5035390;28;20198;-78
2023/07/30 02:03:14;;;;;;;5.63;3.05;;;17.00;99.90;;;;;;5039133;28;20203;-78
2023/07/30 02:05:41;;;;;;;5.90;3.47;;;17.00;99.90;;;;;;5016703;28;20222;-78
2023/07/30 02:08:09;;;;;;;4.38;3.08;;;16.90;99.90;;;;;;5019390;28;20215;-78
2023/07/30 02:10:36;;;;;;;7.07;3.30;;;16.90;99.90;;;;;;5030388;28;20199;-78
2023/07/30 02:13:05;;;;;;;5.50;2.80;;;16.80;99.90;;;;;;5032859;28;20199;-78
2023/07/30 02:15:32;;;;;;;4.38;3.00;;;16.80;99.90;;;;;;5016809;28;20191;-78
2023/07/30 02:18:00;;;;;;;6.03;3.00;;;16.70;99.90;;;;;;5017332;28;20226;-78
2023/07/30 02:20:27;;;;;;;5.90;3.17;;;16.70;99.90;;;;;;5008522;28;20199;-78
2023/07/30 02:22:55;;;;;;;6.60;3.58;;;16.70;99.90;;;;;;5017245;28;20207;-78
2023/07/30 02:25:23;;;;;;;6.13;3.28;;;16.70;99.90;;;;;;5017248;28;20211;-78
2023/07/30 02:27:50;;;;;;;5.40;3.30;;;16.60;99.90;;;;;;5049383;28;20222;-78
2023/07/30 02:30:19;;;;;;;5.60;2.80;;;16.60;99.90;;;;;;5007601;28;20191;-78
2023/07/30 02:32:46;;;;;;;3.83;3.28;;;16.80;99.90;;;;;;5014497;28;20196;-78
2023/07/30 02:35:14;;;;;;;5.65;3.72;;;16.80;99.90;;;;;;5034638;28;20190;-78
2023/07/30 02:37:41;;;;;;;8.55;3.20;;;16.80;99.90;;;;;;5043561;28;20218;-78
2023/07/30 02:40:10;;;;;;;5.88;3.17;;;16.80;99.90;;;;;;5032870;28;20211;-78
2023/07/30 02:42:38;;;;;;;6.07;3.42;;;16.70;99.90;;;;;;5036998;28;20201;-78
2023/07/30 02:45:30;;;;;;;5.72;3.38;;;16.60;99.90;;;;;;5016672;28;20218;-78
2023/07/30 02:47:57;;;;;;;5.50;3.42;;;16.50;99.90;;;;;;5015973;28;21562;-78
2023/07/30 02:50:25;;;;;;;4.70;3.47;;;16.50;99.90;;;;;;5010077;28;20203;-78
2023/07/30 02:52:52;;;;;;;10.98;3.92;;;16.50;99.90;;;;;;5016035;28;20214;-78
2023/07/30 02:55:20;;;;;;;6.50;3.50;;;16.60;99.90;;;;;;5012314;28;20206;-78
2023/07/30 02:57:47;;;;;;;6.57;3.38;;;16.40;99.90;;;;;;5013777;28;20219;-78
2023/07/30 03:00:15;;;;;;;5.60;3.08;;;16.30;99.90;;;;;;5012892;28;20221;-78
2023/07/30 03:02:44;;;;;;;5.22;3.38;;;16.40;99.90;;;;;;5034097;28;20197;-78
2023/07/30 03:05:11;;;;;;;5.90;3.20;;;16.50;99.90;;;;;;5017002;28;20724;-78
2023/07/30 03:07:39;;;;;;;5.72;3.13;;;16.50;99.90;;;;;;5013013;28;20206;-78
2023/07/30 03:10:07;;;;;;;7.05;3.40;;;16.50;99.90;;;;;;5016091;28;20519;-78
2023/07/30 03:12:34;;;;;;;5.63;3.00;;;16.50;99.90;;;;;;5029886;28;20215;-78
2023/07/30 03:15:02;;;;;;;4.85;3.20;;;16.50;99.90;;;;;;5019068;28;20195;-78
2023/07/30 03:17:50;;;;;;;8.00;3.75;;;16.40;99.90;;;;;;5011444;28;20195;-78
2023/07/30 03:20:18;;;;;;;4.85;3.20;;;16.30;99.90;;;;;;5011757;28;20210;-78
2023/07/30 03:22:45;;;;;;;5.88;2.80;;;16.30;99.90;;;;;;5028723;28;20550;-78
2023/07/30 03:25:13;;;;;;;4.13;3.15;;;16.30;99.90;;;;;;5016764;28;20214;-78
2023/07/30 03:27:40;;;;;;;7.10;3.60;;;16.30;99.90;;;;;;5039982;28;20798;-78
2023/07/30 03:30:09;;;;;;;7.38;4.10;;;16.40;99.90;;;;;;5027048;28;20195;-78
2023/07/30 03:32:36;;;;;;;7.72;3.65;;;16.30;99.90;;;;;;5009078;28;20203;-78
2023/07/30 03:35:06;;;;;;;7.40;3.63;;;16.30;99.90;;;;;;5014344;28;20210;-78
2023/07/30 03:37:33;;;;;;;5.90;3.33;;;16.30;99.90;;;;;;5049275;28;20199;-78
2023/07/30 03:40:00;;;;;;;6.90;3.45;;;16.30;99.90;;;;;;5034640;28;20267;-78
2023/07/30 03:42:28;;;;;;;4.28;2.85;;;16.30;99.90;;;;;;5017913;28;20206;-78
2023/07/30 03:44:55;;;;;;;10.18;4.13;;;16.30;99.90;;;;;;5008264;28;20202;-78
2023/07/30 03:47:23;;;;;;;5.63;3.10;;;16.20;99.90;;;;;;5030873;28;20186;-78
2023/07/30 03:49:50;;;;;;;6.85;3.30;;;16.10;99.90;;;;;;5018817;28;20210;-78
2023/07/30 03:52:19;;;;;;;4.32;2.97;;;16.10;99.90;;;;;;5015775;28;20412;-78
2023/07/30 03:54:47;;;;;;;6.05;3.17;;;16.00;99.90;;;;;;5016661;28;20199;-78
2023/07/30 03:57:14;;;;;;;6.72;3.15;;;16.00;99.90;;;;;;5011036;28;20206;-78
2023/07/30 03:59:43;;;;;;;9.88;3.58;;;16.00;99.90;;;;;;5013395;28;20230;-78
2023/07/30 04:02:15;;;;;;;5.75;3.60;;;16.10;99.90;;;;;;5046521;28;20195;-78
2023/07/30 04:04:43;;;;;;;8.10;4.00;;;16.00;99.90;;;;;;5011874;28;20203;-78
2023/07/30 04:07:10;;;;;;;7.13;3.58;;;16.00;99.90;;;;;;5031377;28;20236;-78
2023/07/30 04:09:39;;;;;;;5.18;3.80;;;16.00;99.90;;;;;;5015887;28;20230;-78
2023/07/30 04:12:07;;;;;;;8.68;4.05;;;15.90;99.90;;;;;;5013228;28;20199;-78
2023/07/30 04:14:34;;;;;;;13.18;3.90;;;16.00;99.90;;;;;;5048003;28;20209;-78
2023/07/30 04:17:07;;;;;;;7.03;3.28;;;16.10;99.90;;;;;;5014022;28;20195;-78
2023/07/30 04:19:34;;;;;;;7.80;3.30;;;16.10;99.90;;;;;;5013907;28;20230;-78
2023/07/30 04:22:02;;;;;;;6.57;3.85;;;16.10;99.90;;;;;;5045426;28;20211;-78
2023/07/30 04:24:30;;;;;;;8.25;4.13;;;16.00;99.90;;;;;;5028939;28;20194;-78
2023/07/30 04:26:59;;;;;;;5.88;3.90;;;16.10;99.90;;;;;;5015900;28;21298;-78
2023/07/30 04:29:27;;;;;;;6.93;3.67;;;16.10;99.90;;;;;;5026165;28;20298;-78
2023/07/30 04:31:54;;;;;;;5.72;3.40;;;16.00;99.90;;;;;;5031829;28;20198;-78
2023/07/30 04:34:21;;;;;;;7.22;3.60;;;16.00;99.90;;;;;;5011585;28;20200;-78
2023/07/30 04:36:49;;;;;;;7.15;3.60;;;16.00;99.90;;;;;;5015719;28;20195;-78
2023/07/30 04:39:17;;;;;;;6.72;3.20;;;15.90;99.90;;;;;;5051252;28;20222;-78
2023/07/30 04:41:53;;;;;;;7.82;3.40;;;15.90;99.90;;;;;;5023801;28;20205;-78
2023/07/30 04:44:21;;;;;;;6.47;3.33;;;16.00;99.90;;;;;;5011554;28;20202;-78
2023/07/30 04:46:49;;;;;;;8.05;3.70;;;16.00;99.90;;;;;;5041744;28;20234;-79
2023/07/30 04:49:17;;;;;;;6.55;3.03;;;15.90;99.90;;;;;;5048952;28;20230;-79
2023/07/30 04:51:44;;;;;;;7.38;3.53;;;16.10;99.90;;;;;;5013424;28;20199;-79
2023/07/30 04:54:12;;;;;;;7.25;3.22;;;16.00;99.90;;;;;;5011143;28;20192;-79
2023/07/30 04:56:39;;;;;;;5.65;3.70;;;16.00;99.90;;;;;;5046080;28;20203;-79
2023/07/30 04:59:07;;;;;;;9.60;3.60;;;16.00;99.90;;;;;;5012157;28;20585;-79
2023/07/30 05:01:36;;;;;;;7.43;3.30;;;16.10;99.90;;;;;;5007020;28;20199;-79
2023/07/30 05:04:03;;;;;;;5.90;3.20;;;16.10;99.90;;;;;;5012267;28;20218;-79
2023/07/30 05:06:31;;;;;;;9.25;3.47;;;16.10;99.90;;;;;;5008581;28;20222;-79
2023/07/30 05:08:58;;;;;;;7.50;3.05;;;16.00;99.90;;;;;;5033734;28;20229;-79
2023/07/30 05:11:25;;;;;;;7.32;3.35;;;16.20;99.90;;;;;;5046790;28;20199;-79
2023/07/30 05:13:53;;;;;;;7.60;3.85;;;16.20;99.90;;;;;;5028725;28;20357;-79
2023/07/30 05:16:20;;;;;;;5.82;3.20;;;16.20;99.90;;;;;;5011233;28;20202;-79
2023/07/30 05:18:49;;;;;;;8.85;4.05;;;16.20;99.90;;;;;;5008678;28;20302;-79
2023/07/30 05:21:17;;;;;;;5.45;3.22;;;16.20;99.90;;;;;;5020676;28;20206;-79
2023/07/30 05:23:44;;;;;;;7.95;3.70;;;16.10;99.90;;;;;;5044376;28;20207;-79
2023/07/30 05:26:19;;;;;;;8.15;3.65;;;16.30;99.90;;;;;;5029648;28;20221;-79
2023/07/30 05:28:47;;;;;;;7.78;3.65;;;16.10;99.90;;;;;;5041192;28;20587;-79
2023/07/30 05:31:14;;;;;;;7.70;3.85;;;16.20;99.90;;;;;;5022268;28;20202;-79
2023/07/30 05:33:41;;;;;;;11.13;4.53;;;16.10;99.90;;;;;;5009112;28;20210;-79
2023/07/30 05:36:10;;;;;;;8.10;3.97;;;16.00;99.90;;;;;;5044047;28;20191;-79
2023/07/30 05:38:38;;;;;;;9.05;4.47;;;16.20;99.90;;;;;;5021524;28;20673;-79
2023/07/30 05:41:08;;;;;;;12.30;4.22;;;16.10;99.90;;;;;;5008047;28;20210;-79
2023/07/30 05:43:35;;;;;;;14.20;4.80;;;16.10;99.90;;;;;;5032566;28;20560;-79
2023/07/30 05:46:10;;;;;;;10.20;4.03;;;16.20;99.90;;;;;;5041905;28;20206;-79
2023/07/30 05:48:37;;;;;;;10.90;4.13;;;16.20;99.90;;;;;;5027305;28;20696;-79
2023/07/30 05:51:27;;;;;;;8.07;4.10;;;16.20;99.90;;;;;;5036648;28;20199;-79
2023/07/30 05:53:55;;;;;;;11.00;3.85;;;16.30;99.90;;;;;;5045780;28;20195;-79
2023/07/30 05:56:23;;;;;;;10.70;4.18;;;16.30;99.90;;;;;;5039945;28;20194;-79
2023/07/30 05:58:53;;;;;;;10.48;4.20;;;16.20;99.90;;;;;;5016887;28;20234;-79
2023/07/30 06:01:27;;;;;;;9.95;4.47;;;16.30;99.90;;;;;;5013189;28;20210;-79
2023/07/30 06:03:54;;;;;;;11.68;4.40;;;16.20;99.90;;;;;;5012474;28;20662;-79
2023/07/30 06:06:27;;;;;;;6.70;4.05;;;16.20;99.90;;;;;;5009205;28;20807;-79
2023/07/30 06:08:56;;;;;;;12.48;4.80;;;16.20;99.90;;;;;;5028745;28;20219;-78
2023/07/30 06:11:23;;;;;;;10.85;4.93;;;16.30;99.90;;;;;;5035012;28;20191;-78
2023/07/30 06:13:51;;;;;;;8.13;4.85;;;16.30;99.90;;;;;;5014836;28;20222;-78
2023/07/30 06:16:19;;;;;;;8.20;4.63;;;16.20;99.90;;;;;;5047485;28;20203;-79
2023/07/30 06:18:47;;;;;;;8.95;4.28;;;16.20;99.90;;;;;;5011454;28;20218;-79
2023/07/30 06:21:14;;;;;;;9.73;4.82;;;16.30;99.90;;;;;;5043381;28;20210;-79
2023/07/30 06:23:43;;;;;;;11.90;5.43;;;16.30;99.90;;;;;;5018775;28;20207;-79
2023/07/30 06:26:12;;;;;;;9.45;4.95;;;16.30;99.90;;;;;;5031194;28;20222;-80
2023/07/30 06:28:39;;;;;;;12.60;5.13;;;16.30;99.90;;;;;;5017916;28;20227;-80
2023/07/30 06:31:07;;;;;;;9.88;4.70;;;16.40;99.90;;;;;;5024418;28;20199;-80
2023/07/30 06:33:34;;;;;;;13.45;5.68;;;16.40;99.90;;;;;;5018429;28;20211;-80
2023/07/30 06:36:05;;;;;;;10.73;4.53;;;16.50;99.90;;;;;;5039953;28;20195;-80
2023/07/30 06:38:32;;;;;;;9.73;5.18;;;16.50;99.90;;;;;;5059115;28;20235;-80
2023/07/30 06:41:00;;;;;;;10.27;4.80;;;16.40;99.90;;;;;;5051296;28;20210;-80
2023/07/30 06:43:28;;;;;;;10.07;5.07;;;16.50;99.90;;;;;;5021788;28;20198;-80
2023/07/30 06:45:56;;;;;;;11.25;5.00;;;16.50;99.90;;;;;;5020196;28;20203;-80
2023/07/30 06:48:23;;;;;;;11.05;4.90;;;16.50;99.90;;;;;;5029112;28;20230;-80
2023/07/30 06:50:51;;;;;;;11.80;4.88;;;16.50;99.90;;;;;;5058529;28;20198;-80
2023/07/30 06:53:20;;;;;;;10.20;4.55;;;16.50;99.90;;;;;;5022501;28;20195;-80
2023/07/30 06:55:47;;;;;;;9.68;4.90;;;16.40;99.90;;;;;;5037309;28;20206;-80
2023/07/30 06:58:17;;;;;;;11.30;5.20;;;16.30;99.90;;;;;;5050566;28;20223;-80
2023/07/30 07:00:46;;;;;;;8.02;4.68;;;16.30;99.90;;;;;;5052987;28;20215;-80
2023/07/30 07:03:13;;;;;;;7.10;4.45;;;16.30;99.90;;;;;;5030704;28;20199;-80
2023/07/30 07:05:40;;;;;;;10.85;4.97;;;16.40;99.90;;;;;;5040312;28;20199;-80
2023/07/30 07:08:08;;;;;;;9.68;4.30;;;16.20;99.90;;;;;;5039673;28;20417;-80
2023/07/30 07:10:35;;;;;;;9.30;4.22;;;16.20;99.90;;;;;;5029330;28;20206;-80
2023/07/30 07:13:03;;;;;;;11.18;4.45;;;16.30;99.90;;;;;;5056300;28;20222;-80
2023/07/30 07:15:30;;;;;;;9.43;4.32;;;16.30;99.90;;;;;;5059496;28;20198;-80
2023/07/30 07:17:59;;;;;;;12.43;5.22;;;16.30;99.90;;;;;;5046177;28;20223;-80
2023/07/30 07:20:27;;;;;;;10.65;5.00;;;16.20;99.90;;;;;;5017166;28;20187;-80
2023/07/30 07:22:54;;;;;;;10.30;4.32;;;16.40;99.90;;;;;;5019993;28;20210;-80
2023/07/30 07:25:22;;;;;;;8.77;4.80;;;16.30;99.90;;;;;;5025461;28;20533;-80
2023/07/30 07:27:49;;;;;;;10.60;4.72;;;16.20;99.90;;;;;;5021817;28;20600;-80
2023/07/30 07:30:17;;;;;;;10.50;5.03;;;16.40;99.90;;;;;;5018952;28;20214;-80
2023/07/30 07:32:44;;;;;;;11.02;4.28;;;16.50;99.90;;;;;;5048239;28;20203;-81
2023/07/30 07:35:13;;;;;;;11.98;4.90;;;16.40;99.90;;;;;;5053229;28;20199;-80
2023/07/30 07:37:40;;;;;;;9.10;4.72;;;16.40;99.90;;;;;;5020691;28;20206;-80
2023/07/30 07:40:10;;;;;;;8.45;4.40;;;16.50;99.90;;;;;;5017363;28;20203;-80
2023/07/30 07:42:38;;;;;;;10.38;4.10;;;16.70;99.90;;;;;;5048714;28;20203;-80
2023/07/30 07:45:07;;;;;;;9.88;4.53;;;16.50;99.90;;;;;;5034818;28;20202;-80
2023/07/30 07:47:35;;;;;;;7.57;4.40;;;16.50;99.90;;;;;;5056184;28;20218;-81
2023/07/30 07:50:03;;;;;;;8.05;4.30;;;16.30;99.90;;;;;;5021439;28;20203;-80
2023/07/30 07:52:37;;;;;;;7.68;4.03;;;16.40;99.90;;;;;;5051720;28;20205;-80
2023/07/30 07:55:06;;;;;;;9.32;4.55;;;16.50;99.90;;;;;;5014444;28;20201;-80
2023/07/30 07:57:33;;;;;;;7.75;4.10;;;16.50;99.90;;;;;;5030456;28;20198;-80
2023/07/30 08:00:05;;;;;;;7.57;3.95;;;16.70;99.90;;;;;;5043405;28;20245;-80
2023/07/30 08:02:40;;;;;;;8.10;3.47;;;16.80;99.90;;;;;;5048180;28;20199;-80
2023/07/30 08:05:08;;;;;;;9.73;4.43;;;16.80;99.90;;;;;;5009757;28;20197;-80
2023/07/30 08:07:37;;;;;;;8.82;4.57;;;16.70;99.90;;;;;;5036492;28;20760;-80
2023/07/30 08:10:05;;;;;;;10.18;4.78;;;16.80;99.90;;;;;;5049896;28;20195;-82
2023/07/30 08:12:35;;;;;;;7.70;4.22;;;16.90;99.90;;;;;;5021285;28;20203;-81
2023/07/30 08:15:02;;;;;;;8.73;5.20;;;16.90;99.90;;;;;;5055220;28;20221;-81
2023/07/30 08:17:42;;;;;;;10.40;5.00;;;16.70;99.90;;;;;;5012389;28;20196;-81
2023/07/30 08:20:10;;;;;;;9.73;4.22;;;16.70;99.90;;;;;;5036970;28;20187;-80
2023/07/30 08:22:39;;;;;;;8.30;4.97;;;16.80;99.90;;;;;;5025497;28;20203;-81
2023/07/30 08:25:09;;;;;;;9.85;4.63;;;16.80;99.90;;;;;;5053117;28;20222;-81
2023/07/30 08:27:36;;;;;;;11.93;5.18;;;16.90;99.90;;;;;;5032232;28;20229;-81
2023/07/30 08:30:04;;;;;;;8.30;5.05;;;16.80;99.90;;;;;;5012170;28;20207;-82
2023/07/30 08:32:33;;;;;;;8.20;5.63;;;16.80;99.90;;;;;;5050036;28;20195;-82
2023/07/30 08:35:01;;;;;;;9.50;5.00;;;16.70;99.90;;;;;;5022553;28;20206;-81
2023/07/30 08:37:28;;;;;;;12.50;5.28;;;16.80;99.90;;;;;;5014018;28;20206;-82
2023/07/30 08:39:57;;;;;;;11.25;5.93;;;16.90;99.90;;;;;;5009676;28;20191;-81
2023/07/30 08:42:26;;;;;;;13.52;6.00;;;16.90;99.90;;;;;;5013100;28;20203;-82
2023/07/30 08:44:54;;;;;;;11.50;5.30;;;16.90;99.90;;;;;;5036950;28;20201;-82
2023/07/30 08:47:21;;;;;;;9.60;5.40;;;17.00;99.90;;;;;;5013827;28;20195;-82
2023/07/30 08:49:49;;;;;;;8.57;5.50;;;17.00;99.90;;;;;;5036060;28;20222;-81
2023/07/30 08:52:19;;;;;;;9.52;6.50;;;17.20;99.90;;;;;;5018777;28;20546;-82
2023/07/30 08:54:52;;;;;;;12.68;6.30;;;17.20;99.90;;;;;;5013329;28;20203;-81
2023/07/30 08:57:22;;;;;;;10.45;6.18;;;17.30;99.90;;;;;;5034903;28;20673;-81
2023/07/30 08:59:55;;;;;;;7.85;5.25;;;17.20;99.90;;;;;;5016023;28;20225;-82
2023/07/30 09:02:34;;;;;;;11.10;5.47;;;17.30;99.90;;;;;;5033135;28;20199;-81
2023/07/30 09:05:02;;;;;;;9.70;5.55;;;17.40;99.90;;;;;;5015794;28;20194;-81
2023/07/30 09:07:29;;;;;;;13.18;6.30;;;17.40;99.90;;;;;;5036274;28;20191;-80
2023/07/30 09:09:57;;;;;;;9.85;5.93;;;17.60;99.90;;;;;;5016241;28;20195;-81
2023/07/30 09:12:30;;;;;;;10.25;5.18;;;17.70;99.90;;;;;;5038063;28;20195;-81
2023/07/30 09:14:58;;;;;;;14.15;5.78;;;17.70;99.90;;;;;;5051477;28;20692;-81
2023/07/30 09:17:26;;;;;;;11.35;5.43;;;17.70;99.90;;;;;;5046696;28;20202;-81
2023/07/30 09:19:54;;;;;;;14.38;5.57;;;17.70;99.90;;;;;;5050446;28;20210;-81
2023/07/30 09:22:26;;;;;;;7.25;4.85;;;17.70;99.90;;;;;;5015759;28;20206;-82
2023/07/30 09:24:54;;;;;;;8.52;5.13;;;17.80;99.90;;;;;;5019250;28;20203;-82
2023/07/30 09:27:26;;;;;;;10.07;5.15;;;17.90;99.90;;;;;;5032148;28;20215;-82
2023/07/30 09:29:56;;;;;;;10.48;5.43;;;17.90;99.90;;;;;;5036126;28;20206;-82
2023/07/30 09:32:28;;;;;;;12.30;5.45;;;17.80;99.90;;;;;;5053048;28;20650;-82
2023/07/30 09:34:55;;;;;;;10.82;5.63;;;18.00;99.90;;;;;;5035749;28;20197;-82
2023/07/30 09:37:23;;;;;;;9.75;5.63;;;18.00;99.90;;;;;;5029781;28;20202;-82
2023/07/30 09:39:50;;;;;;;10.27;6.07;;;18.10;99.90;;;;;;5031885;28;20225;-82
2023/07/30 09:42:18;;;;;;;11.38;4.78;;;18.10;99.90;;;;;;5013527;28;20199;-82
2023/07/30 09:44:48;;;;;;;9.63;5.60;;;18.20;99.90;;;;;;5016208;28;20566;-82
2023/07/30 09:47:31;;;;;;;9.40;5.82;;;18.20;99.90;;;;;;5017374;28;20203;-82
2023/07/30 09:50:06;;;;;;;7.93;4.97;;;18.30;99.90;;;;;;5035940;28;20218;-82
2023/07/30 09:52:34;;;;;;;8.70;5.22;;;18.50;99.90;;;;;;5052699;28;20665;-81
2023/07/30 09:55:02;;;;;;;8.32;4.32;;;18.70;99.90;;;;;;5016324;28;20214;-81
2023/07/30 09:57:30;;;;;;;9.15;4.97;;;18.70;99.90;;;;;;5051231;28;20215;-81
2023/07/30 09:59:57;;;;;;;7.82;4.57;;;18.70;99.90;;;;;;5033075;28;20190;-81
2023/07/30 10:02:26;;;;;;;8.20;3.80;;;18.70;99.90;;;;;;5009034;28;20226;-82
2023/07/30 10:04:59;;;;;;;5.82;4.40;;;18.80;99.90;;;;;;5013807;28;20575;-82
2023/07/30 10:07:28;;;;;;;7.97;4.03;;;18.90;99.90;;;;;;5056344;28;20202;-82
2023/07/30 10:09:59;;;;;;;15.40;4.70;;;19.00;99.90;;;;;;5021327;28;20827;-81
2023/07/30 10:12:33;;;;;;;5.65;3.50;;;18.90;99.90;;;;;;5053342;28;20192;-82
2023/07/30 10:15:02;;;;;;;8.18;3.28;;;18.90;99.90;;;;;;5058791;28;20206;-83
2023/07/30 10:17:29;;;;;;;6.07;3.20;;;18.80;99.90;;;;;;5045998;28;20199;-82
2023/07/30 10:20:18;;;;;;;8.23;3.25;;;18.70;99.90;;;;;;5048195;28;20195;-82
2023/07/30 10:22:47;;;;;;;8.25;3.47;;;18.90;99.90;;;;;;5059491;28;20202;-83
2023/07/30 10:25:14;;;;;;;9.88;3.22;;;18.90;99.90;;;;;;5031332;28;20198;-83
2023/07/30 10:27:46;;;;;;;7.35;3.83;;;19.00;99.90;;;;;;5029566;28;20203;-82
2023/07/30 10:30:14;;;;;;;6.85;3.05;;;19.20;99.90;;;;;;5022462;28;20211;-83
2023/07/30 10:32:58;;;;;;;6.68;3.13;;;19.30;99.90;;;;;;5055038;28;20203;-82
2023/07/30 10:35:43;;;;;;;7.57;2.42;;;19.30;99.90;;;;;;5046218;28;20209;-82
2023/07/30 10:38:20;;;;;;;6.85;2.53;;;19.00;99.90;;;;;;5051256;28;20229;-82
2023/07/30 10:41:05;;;;;;;5.00;2.63;;;19.20;99.90;;;;;;5046852;28;20202;-82
2023/07/30 10:43:35;;;;;;;7.10;2.40;;;19.50;99.90;;;;;;5022219;28;20195;-81
2023/07/30 10:46:03;;;;;;;6.90;2.65;;;19.60;99.90;;;;;;5042556;28;20203;-81
2023/07/30 10:48:32;;;;;;;7.82;2.72;;;19.80;99.90;;;;;;5042160;28;20215;-83
2023/07/30 10:51:02;;;;;;;4.32;1.95;;;19.70;99.90;;;;;;5040600;28;20206;-83
2023/07/30 10:53:30;;;;;;;6.18;2.83;;;19.70;99.90;;;;;;5029113;28;20207;-82
2023/07/30 10:56:01;;;;;;;4.88;2.17;;;19.50;99.90;;;;;;5024097;28;20211;-82
2023/07/30 10:58:29;;;;;;;8.88;2.13;;;19.50;99.90;;;;;;5028234;28;20229;-82
2023/07/30 11:00:56;;;;;;;8.65;3.00;;;19.30;99.90;;;;;;5039535;28;20669;-83
2023/07/30 11:03:26;;;;;;;7.88;2.47;;;19.30;99.90;;;;;;5018134;28;20675;-83
2023/07/30 11:05:56;;;;;;;4.47;1.83;;;19.20;99.90;;;;;;5037903;28;20217;-83
2023/07/30 11:08:36;;;;;;;7.05;2.00;;;19.20;99.90;;;;;;5025343;28;20231;-83
2023/07/30 11:11:04;;;;;;;4.95;1.90;;;19.40;99.90;;;;;;5059918;28;20194;-82
2023/07/30 11:13:36;;;;;;;5.45;1.95;;;19.70;99.90;;;;;;5029386;28;20203;-82
2023/07/30 11:16:05;;;;;;;7.15;2.22;;;19.80;99.90;;;;;;5041535;28;20199;-83
2023/07/30 11:18:33;;;;;;;7.63;2.83;;;20.00;99.90;;;;;;5023872;28;20223;-83
2023/07/30 11:21:05;;;;;;;5.45;2.30;;;20.00;99.90;;;;;;5022728;28;20199;-81
2023/07/30 11:23:35;;;;;;;3.80;2.08;;;19.90;99.90;;;;;;5057376;28;20199;-82
2023/07/30 11:26:07;;;;;;;4.22;1.77;;;20.20;99.90;;;;;;5023522;28;20206;-82
2023/07/30 11:28:35;;;;;;;4.95;2.00;;;20.40;99.90;;;;;;5017953;28;20234;-82
2023/07/30 11:31:05;;;;;;;6.60;1.75;;;20.50;99.90;;;;;;5022193;28;20199;-81
2023/07/30 11:33:33;;;;;;;6.38;1.90;;;20.50;99.90;;;;;;5020600;28;20199;-81
2023/07/30 11:36:03;;;;;;;6.00;2.53;;;20.40;99.90;;;;;;5019289;28;20227;-81
2023/07/30 11:38:32;;;;;;;6.00;2.00;;;20.50;99.90;;;;;;5039711;28;20234;-82
2023/07/30 11:41:01;;;;;;;6.28;2.13;;;20.40;99.90;;;;;;5047458;28;20191;-82
2023/07/30 11:43:31;;;;;;;3.78;1.83;;;20.40;99.90;;;;;;5045894;28;20202;-82
2023/07/30 11:46:11;;;;;;;4.85;2.10;;;20.30;99.90;;;;;;5034804;28;20207;-82
2023/07/30 11:48:41;;;;;;;5.85;1.65;;;20.10;99.90;;;;;;5050745;28;20221;-82
2023/07/30 11:51:19;;;;;;;7.95;2.70;;;20.00;99.90;;;;;;5042772;28;20229;-82
2023/07/30 11:53:53;;;;;;;7.03;2.17;;;19.90;99.90;;;;;;5034378;28;20209;-82
2023/07/30 11:56:24;;;;;;;5.28;1.60;;;19.90;99.90;;;;;;5055223;28;20203;-82
2023/07/30 11:58:56;;;;;;;3.63;1.88;;;20.00;99.90;;;;;;5026676;28;20234;-82
2023/07/30 12:01:25;;;;;;;5.72;2.05;;;20.00;99.90;;;;;;5023305;28;20199;-82
2023/07/30 12:03:56;;;;;;;4.38;1.67;;;20.20;99.90;;;;;;5041832;28;20214;-82
2023/07/30 12:06:23;;;;;;;7.93;1.83;;;20.20;99.90;;;;;;5024591;28;20222;-82
2023/07/30 12:08:52;;;;;;;5.82;1.88;;;20.20;99.90;;;;;;5054666;28;20215;-82
2023/07/30 12:11:20;;;;;;;8.25;2.03;;;20.20;99.90;;;;;;5039328;28;20597;-82
2023/07/30 12:13:50;;;;;;;5.70;1.92;;;20.20;99.90;;;;;;5023774;28;20214;-82
2023/07/30 12:16:17;;;;;;;5.43;1.88;;;20.40;99.90;;;;;;5045360;28;20195;-82
2023/07/30 12:18:45;;;;;;;6.28;2.10;;;20.50;99.90;;;;;;5017467;28;20250;-82
2023/07/30 12:21:13;;;;;;;4.22;1.90;;;20.50;99.90;;;;;;5057827;28;20201;-82
2023/07/30 12:23:41;;;;;;;5.80;2.08;;;20.80;99.90;;;;;;5033496;28;20203;-82
2023/07/30 12:26:09;;;;;;;5.38;1.88;;;20.80;99.90;;;;;;5026161;28;20563;-82
2023/07/30 12:28:36;;;;;;;4.63;1.90;;;20.70;99.90;;;;;;5016545;28;20223;-82
2023/07/30 12:31:05;;;;;;;4.18;1.70;;;20.60;99.90;;;;;;5037995;28;20203;-82
2023/07/30 12:33:32;;;;;;;4.32;2.15;;;20.70;99.90;;;;;;5027825;28;20686;-82
2023/07/30 12:36:00;;;;;;;3.72;1.35;;;20.90;99.90;;;;;;5037348;28;20203;-82
2023/07/30 12:38:27;;;;;;;5.90;1.88;;;21.20;99.90;;;;;;5024751;28;20218;-82
2023/07/30 12:40:55;;;;;;;5.80;1.70;;;21.30;99.90;;;;;;5053520;28;20199;-82
2023/07/30 12:43:22;;;;;;;3.58;1.60;;;21.20;99.90;;;;;;5012419;28;20195;-82
2023/07/30 12:45:52;;;;;;;3.67;1.50;;;21.10;99.90;;;;;;5018285;28;20203;-81
2023/07/30 12:48:22;;;;;;;5.50;1.88;;;20.90;99.90;;;;;;5038443;28;20222;-82
2023/07/30 12:50:52;;;;;;;5.65;1.95;;;20.70;99.90;;;;;;5047343;28;20207;-81
2023/07/30 12:53:19;;;;;;;5.50;1.63;;;20.80;99.90;;;;;;5029494;28;20538;-81
2023/07/30 12:55:47;;;;;;;6.47;1.95;;;20.90;99.90;;;;;;5045532;28;20194;-81